sensor_id;sensor_type;location;lat;lon;timestamp;P1;durP1;ratioP1;P2;durP2;ratioP2
16352;SDS011;8286;51.274;9.542;2023-09-07T00:02:25;4.60;;;4.05;;
16352;SDS011;8286;51.274;9.542;2023-09-07T00:04:52;8.02;;;4.43;;
16352;SDS011;8286;51.274;9.542;2023-09-07T00:07:18;4.70;;;3.65;;
16352;SDS011;8286;51.274;9.542;2023-09-07T00:09:45;6.65;;;3.95;;
16352;SDS011;8286;51.274;9.542;2023-09-07T00:12:12;4.22;;;3.75;;
16352;SDS011;8286;51.274;9.542;2023-09-07T00:14:38;6.97;;;4.40;;
16352;SDS011;8286;51.274;9.542;2023-09-07T00:17:05;6.93;;;4.10;;
16352;SDS011;8286;51.274;9.542;2023-09-07T00:19:32;6.18;;;4.22;;
16352;SDS011;8286;51.274;9.542;2023-09-07T00:22:02;9.13;;;4.35;;
16352;SDS011;8286;51.274;9.542;2023-09-07T00:24:29;4.97;;;3.83;;
16352;SDS011;8286;51.274;9.542;2023-09-07T00:26:56;7.40;;;4.03;;
16352;SDS011;8286;51.274;9.542;2023-09-07T00:29:23;6.40;;;4.13;;
16352;SDS011;8286;51.274;9.542;2023-09-07T00:31:49;5.63;;;4.47;;
16352;SDS011;8286;51.274;9.542;2023-09-07T00:34:16;4.45;;;3.85;;
16352;SDS011;8286;51.274;9.542;2023-09-07T00:36:43;5.20;;;4.22;;
16352;SDS011;8286;51.274;9.542;2023-09-07T00:39:10;5.75;;;4.10;;
16352;SDS011;8286;51.274;9.542;2023-09-07T00:41:36;8.00;;;4.45;;
16352;SDS011;8286;51.274;9.542;2023-09-07T00:44:03;7.80;;;4.55;;
16352;SDS011;8286;51.274;9.542;2023-09-07T00:46:31;5.18;;;4.35;;
16352;SDS011;8286;51.274;9.542;2023-09-07T00:48:57;5.82;;;4.03;;
16352;SDS011;8286;51.274;9.542;2023-09-07T00:51:24;5.18;;;4.30;;
16352;SDS011;8286;51.274;9.542;2023-09-07T00:53:52;7.55;;;4.43;;
16352;SDS011;8286;51.274;9.542;2023-09-07T00:56:18;5.60;;;4.38;;
16352;SDS011;8286;51.274;9.542;2023-09-07T00:58:45;6.35;;;4.63;;
16352;SDS011;8286;51.274;9.542;2023-09-07T01:01:12;6.47;;;3.83;;
16352;SDS011;8286;51.274;9.542;2023-09-07T01:03:38;7.10;;;4.60;;
16352;SDS011;8286;51.274;9.542;2023-09-07T01:06:07;7.30;;;4.72;;
16352;SDS011;8286;51.274;9.542;2023-09-07T01:08:43;7.32;;;4.10;;
16352;SDS011;8286;51.274;9.542;2023-09-07T01:11:16;7.50;;;4.43;;
16352;SDS011;8286;51.274;9.542;2023-09-07T01:13:43;5.63;;;4.00;;
16352;SDS011;8286;51.274;9.542;2023-09-07T01:16:09;7.88;;;4.10;;
16352;SDS011;8286;51.274;9.542;2023-09-07T01:18:36;7.43;;;4.78;;
16352;SDS011;8286;51.274;9.542;2023-09-07T01:21:04;5.05;;;4.35;;
16352;SDS011;8286;51.274;9.542;2023-09-07T01:23:33;5.43;;;4.47;;
16352;SDS011;8286;51.274;9.542;2023-09-07T01:26:00;6.05;;;4.53;;
16352;SDS011;8286;51.274;9.542;2023-09-07T01:28:27;5.22;;;4.10;;
16352;SDS011;8286;51.274;9.542;2023-09-07T01:30:54;7.32;;;4.40;;
16352;SDS011;8286;51.274;9.542;2023-09-07T01:33:20;6.60;;;4.57;;
16352;SDS011;8286;51.274;9.542;2023-09-07T01:35:47;5.43;;;3.90;;
16352;SDS011;8286;51.274;9.542;2023-09-07T01:38:13;4.68;;;3.95;;
16352;SDS011;8286;51.274;9.542;2023-09-07T01:40:41;4.60;;;4.07;;
16352;SDS011;8286;51.274;9.542;2023-09-07T01:43:08;6.28;;;3.90;;
16352;SDS011;8286;51.274;9.542;2023-09-07T01:45:34;5.78;;;4.38;;
16352;SDS011;8286;51.274;9.542;2023-09-07T01:48:01;7.20;;;4.10;;
16352;SDS011;8286;51.274;9.542;2023-09-07T01:50:28;5.97;;;4.35;;
16352;SDS011;8286;51.274;9.542;2023-09-07T01:52:54;7.45;;;4.90;;
16352;SDS011;8286;51.274;9.542;2023-09-07T01:55:21;5.90;;;4.68;;
16352;SDS011;8286;51.274;9.542;2023-09-07T01:57:49;6.38;;;4.80;;
16352;SDS011;8286;51.274;9.542;2023-09-07T02:00:15;7.43;;;4.75;;
16352;SDS011;8286;51.274;9.542;2023-09-07T02:02:42;7.00;;;4.70;;
16352;SDS011;8286;51.274;9.542;2023-09-07T02:05:09;6.47;;;4.70;;
16352;SDS011;8286;51.274;9.542;2023-09-07T02:07:35;5.72;;;4.35;;
16352;SDS011;8286;51.274;9.542;2023-09-07T02:10:02;9.37;;;5.30;;
16352;SDS011;8286;51.274;9.542;2023-09-07T02:12:29;6.88;;;4.53;;
16352;SDS011;8286;51.274;9.542;2023-09-07T02:14:58;5.35;;;4.75;;
16352;SDS011;8286;51.274;9.542;2023-09-07T02:17:27;8.48;;;4.03;;
16352;SDS011;8286;51.274;9.542;2023-09-07T02:19:53;5.85;;;4.65;;
16352;SDS011;8286;51.274;9.542;2023-09-07T02:22:20;10.63;;;4.70;;
16352;SDS011;8286;51.274;9.542;2023-09-07T02:24:47;5.60;;;4.35;;
16352;SDS011;8286;51.274;9.542;2023-09-07T02:27:13;7.35;;;3.83;;
16352;SDS011;8286;51.274;9.542;2023-09-07T02:29:40;6.18;;;4.30;;
16352;SDS011;8286;51.274;9.542;2023-09-07T02:32:08;6.55;;;3.78;;
16352;SDS011;8286;51.274;9.542;2023-09-07T02:34:34;4.70;;;4.10;;
16352;SDS011;8286;51.274;9.542;2023-09-07T02:37:01;7.00;;;4.03;;
16352;SDS011;8286;51.274;9.542;2023-09-07T02:39:27;4.97;;;3.60;;
16352;SDS011;8286;51.274;9.542;2023-09-07T02:41:54;7.10;;;3.70;;
16352;SDS011;8286;51.274;9.542;2023-09-07T02:44:20;4.45;;;3.75;;
16352;SDS011;8286;51.274;9.542;2023-09-07T02:46:47;7.20;;;4.32;;
16352;SDS011;8286;51.274;9.542;2023-09-07T02:49:15;9.02;;;4.10;;
16352;SDS011;8286;51.274;9.542;2023-09-07T02:51:41;4.88;;;3.90;;
16352;SDS011;8286;51.274;9.542;2023-09-07T02:54:08;5.13;;;3.72;;
16352;SDS011;8286;51.274;9.542;2023-09-07T02:56:35;4.28;;;3.88;;
16352;SDS011;8286;51.274;9.542;2023-09-07T02:59:01;4.38;;;3.97;;
16352;SDS011;8286;51.274;9.542;2023-09-07T03:01:28;6.05;;;4.18;;
16352;SDS011;8286;51.274;9.542;2023-09-07T03:03:55;7.15;;;4.20;;
16352;SDS011;8286;51.274;9.542;2023-09-07T03:06:23;6.90;;;4.60;;
16352;SDS011;8286;51.274;9.542;2023-09-07T03:08:49;5.10;;;4.60;;
16352;SDS011;8286;51.274;9.542;2023-09-07T03:11:17;6.88;;;4.38;;
16352;SDS011;8286;51.274;9.542;2023-09-07T03:13:43;8.23;;;4.20;;
16352;SDS011;8286;51.274;9.542;2023-09-07T03:16:10;6.55;;;4.25;;
16352;SDS011;8286;51.274;9.542;2023-09-07T03:18:36;5.90;;;4.70;;
16352;SDS011;8286;51.274;9.542;2023-09-07T03:21:03;5.15;;;4.35;;
16352;SDS011;8286;51.274;9.542;2023-09-07T03:23:31;6.18;;;4.78;;
16352;SDS011;8286;51.274;9.542;2023-09-07T03:25:58;8.75;;;4.40;;
16352;SDS011;8286;51.274;9.542;2023-09-07T03:28:25;5.18;;;4.68;;
16352;SDS011;8286;51.274;9.542;2023-09-07T03:30:53;6.43;;;4.82;;
16352;SDS011;8286;51.274;9.542;2023-09-07T03:33:20;5.57;;;4.25;;
16352;SDS011;8286;51.274;9.542;2023-09-07T03:35:46;9.70;;;4.72;;
16352;SDS011;8286;51.274;9.542;2023-09-07T03:38:13;4.72;;;4.25;;
16352;SDS011;8286;51.274;9.542;2023-09-07T03:40:41;12.50;;;5.28;;
16352;SDS011;8286;51.274;9.542;2023-09-07T03:43:07;8.25;;;4.93;;
16352;SDS011;8286;51.274;9.542;2023-09-07T03:45:34;5.28;;;4.47;;
16352;SDS011;8286;51.274;9.542;2023-09-07T03:48:00;5.35;;;4.85;;
16352;SDS011;8286;51.274;9.542;2023-09-07T03:50:27;6.65;;;4.97;;
16352;SDS011;8286;51.274;9.542;2023-09-07T03:52:54;7.23;;;5.17;;
16352;SDS011;8286;51.274;9.542;2023-09-07T03:55:20;9.73;;;4.50;;
16352;SDS011;8286;51.274;9.542;2023-09-07T03:57:48;10.20;;;4.97;;
16352;SDS011;8286;51.274;9.542;2023-09-07T04:00:15;6.80;;;4.80;;
16352;SDS011;8286;51.274;9.542;2023-09-07T04:02:43;8.83;;;4.70;;
16352;SDS011;8286;51.274;9.542;2023-09-07T04:05:09;6.18;;;5.20;;
16352;SDS011;8286;51.274;9.542;2023-09-07T04:07:36;5.45;;;4.70;;
16352;SDS011;8286;51.274;9.542;2023-09-07T04:10:03;5.95;;;4.93;;
16352;SDS011;8286;51.274;9.542;2023-09-07T04:12:30;5.00;;;4.32;;
16352;SDS011;8286;51.274;9.542;2023-09-07T04:14:59;8.33;;;5.00;;
16352;SDS011;8286;51.274;9.542;2023-09-07T04:17:26;6.17;;;4.70;;
16352;SDS011;8286;51.274;9.542;2023-09-07T04:19:53;10.07;;;4.70;;
16352;SDS011;8286;51.274;9.542;2023-09-07T04:22:19;5.10;;;4.60;;
16352;SDS011;8286;51.274;9.542;2023-09-07T04:24:47;5.03;;;4.07;;
16352;SDS011;8286;51.274;9.542;2023-09-07T04:27:13;8.17;;;4.70;;
16352;SDS011;8286;51.274;9.542;2023-09-07T04:29:40;5.63;;;4.53;;
16352;SDS011;8286;51.274;9.542;2023-09-07T04:32:08;4.97;;;4.43;;
16352;SDS011;8286;51.274;9.542;2023-09-07T04:34:34;6.13;;;4.90;;
16352;SDS011;8286;51.274;9.542;2023-09-07T04:37:01;5.50;;;4.80;;
16352;SDS011;8286;51.274;9.542;2023-09-07T04:39:27;12.50;;;4.70;;
16352;SDS011;8286;51.274;9.542;2023-09-07T04:41:54;6.80;;;4.73;;
16352;SDS011;8286;51.274;9.542;2023-09-07T04:44:20;6.17;;;4.43;;
16352;SDS011;8286;51.274;9.542;2023-09-07T04:46:47;9.77;;;5.10;;
16352;SDS011;8286;51.274;9.542;2023-09-07T04:49:14;6.47;;;5.30;;
16352;SDS011;8286;51.274;9.542;2023-09-07T04:51:41;8.83;;;5.23;;
16352;SDS011;8286;51.274;9.542;2023-09-07T04:54:07;6.53;;;5.20;;
16352;SDS011;8286;51.274;9.542;2023-09-07T04:56:34;6.50;;;4.93;;
16352;SDS011;8286;51.274;9.542;2023-09-07T04:59:00;6.03;;;5.07;;
16352;SDS011;8286;51.274;9.542;2023-09-07T05:01:27;5.60;;;4.63;;
16352;SDS011;8286;51.274;9.542;2023-09-07T05:03:53;10.13;;;4.40;;
16352;SDS011;8286;51.274;9.542;2023-09-07T05:06:21;7.73;;;4.97;;
16352;SDS011;8286;51.274;9.542;2023-09-07T05:08:48;8.00;;;5.18;;
16352;SDS011;8286;51.274;9.542;2023-09-07T05:11:15;8.93;;;5.53;;
16352;SDS011;8286;51.274;9.542;2023-09-07T05:13:41;5.80;;;4.80;;
16352;SDS011;8286;51.274;9.542;2023-09-07T05:16:08;7.90;;;4.50;;
16352;SDS011;8286;51.274;9.542;2023-09-07T05:18:34;6.33;;;4.80;;
16352;SDS011;8286;51.274;9.542;2023-09-07T05:21:01;7.57;;;5.07;;
16352;SDS011;8286;51.274;9.542;2023-09-07T05:23:38;5.23;;;4.73;;
16352;SDS011;8286;51.274;9.542;2023-09-07T05:26:05;6.50;;;4.60;;
16352;SDS011;8286;51.274;9.542;2023-09-07T05:28:32;5.80;;;4.80;;
16352;SDS011;8286;51.274;9.542;2023-09-07T05:30:58;6.10;;;5.10;;
16352;SDS011;8286;51.274;9.542;2023-09-07T05:33:25;5.37;;;4.77;;
16352;SDS011;8286;51.274;9.542;2023-09-07T05:35:51;5.80;;;4.60;;
16352;SDS011;8286;51.274;9.542;2023-09-07T05:38:18;14.43;;;5.03;;
16352;SDS011;8286;51.274;9.542;2023-09-07T05:40:46;6.77;;;4.70;;
16352;SDS011;8286;51.274;9.542;2023-09-07T05:43:15;6.68;;;4.82;;
16352;SDS011;8286;51.274;9.542;2023-09-07T05:45:41;7.07;;;5.15;;
16352;SDS011;8286;51.274;9.542;2023-09-07T05:48:08;6.65;;;5.32;;
16352;SDS011;8286;51.274;9.542;2023-09-07T05:50:35;10.13;;;5.07;;
16352;SDS011;8286;51.274;9.542;2023-09-07T05:53:03;6.80;;;5.10;;
16352;SDS011;8286;51.274;9.542;2023-09-07T05:55:29;6.05;;;5.25;;
16352;SDS011;8286;51.274;9.542;2023-09-07T05:57:57;7.88;;;4.93;;
16352;SDS011;8286;51.274;9.542;2023-09-07T06:00:24;6.85;;;4.90;;
16352;SDS011;8286;51.274;9.542;2023-09-07T06:02:51;6.40;;;5.28;;
16352;SDS011;8286;51.274;9.542;2023-09-07T06:05:18;10.45;;;6.40;;
16352;SDS011;8286;51.274;9.542;2023-09-07T06:07:44;7.57;;;5.45;;
16352;SDS011;8286;51.274;9.542;2023-09-07T06:10:11;6.10;;;5.40;;
16352;SDS011;8286;51.274;9.542;2023-09-07T06:12:38;8.90;;;6.43;;
16352;SDS011;8286;51.274;9.542;2023-09-07T06:15:07;7.65;;;5.90;;
16352;SDS011;8286;51.274;9.542;2023-09-07T06:17:34;7.35;;;5.70;;
16352;SDS011;8286;51.274;9.542;2023-09-07T06:20:01;8.77;;;6.07;;
16352;SDS011;8286;51.274;9.542;2023-09-07T06:22:27;7.40;;;5.65;;
16352;SDS011;8286;51.274;9.542;2023-09-07T06:24:54;9.30;;;6.13;;
16352;SDS011;8286;51.274;9.542;2023-09-07T06:27:20;9.93;;;5.97;;
16352;SDS011;8286;51.274;9.542;2023-09-07T06:29:47;14.63;;;5.75;;
16352;SDS011;8286;51.274;9.542;2023-09-07T06:32:15;12.05;;;6.32;;
16352;SDS011;8286;51.274;9.542;2023-09-07T06:34:41;7.22;;;5.55;;
16352;SDS011;8286;51.274;9.542;2023-09-07T06:37:08;7.15;;;5.93;;
16352;SDS011;8286;51.274;9.542;2023-09-07T06:39:35;8.45;;;6.10;;
16352;SDS011;8286;51.274;9.542;2023-09-07T06:42:01;12.63;;;5.95;;
16352;SDS011;8286;51.274;9.542;2023-09-07T06:44:28;7.30;;;6.13;;
16352;SDS011;8286;51.274;9.542;2023-09-07T06:46:55;10.50;;;5.53;;
16352;SDS011;8286;51.274;9.542;2023-09-07T06:49:23;10.48;;;6.47;;
16352;SDS011;8286;51.274;9.542;2023-09-07T06:51:50;13.98;;;5.80;;
16352;SDS011;8286;51.274;9.542;2023-09-07T06:54:16;5.90;;;5.30;;
16352;SDS011;8286;51.274;9.542;2023-09-07T06:56:43;6.63;;;4.85;;
16352;SDS011;8286;51.274;9.542;2023-09-07T06:59:09;5.47;;;4.20;;
16352;SDS011;8286;51.274;9.542;2023-09-07T07:01:35;6.60;;;4.25;;
16352;SDS011;8286;51.274;9.542;2023-09-07T07:04:02;7.00;;;4.63;;
16352;SDS011;8286;51.274;9.542;2023-09-07T07:06:30;6.45;;;3.80;;
16352;SDS011;8286;51.274;9.542;2023-09-07T07:08:57;6.32;;;3.95;;
16352;SDS011;8286;51.274;9.542;2023-09-07T07:11:23;5.28;;;4.35;;
16352;SDS011;8286;51.274;9.542;2023-09-07T07:13:50;4.63;;;3.95;;
16352;SDS011;8286;51.274;9.542;2023-09-07T07:16:16;7.68;;;4.97;;
16352;SDS011;8286;51.274;9.542;2023-09-07T07:18:43;7.00;;;4.55;;
16352;SDS011;8286;51.274;9.542;2023-09-07T07:21:09;6.00;;;4.13;;
16352;SDS011;8286;51.274;9.542;2023-09-07T07:23:37;6.20;;;4.20;;
16352;SDS011;8286;51.274;9.542;2023-09-07T07:26:04;7.72;;;4.32;;
16352;SDS011;8286;51.274;9.542;2023-09-07T07:28:30;6.63;;;4.53;;
16352;SDS011;8286;51.274;9.542;2023-09-07T07:30:57;8.75;;;4.82;;
16352;SDS011;8286;51.274;9.542;2023-09-07T07:33:23;8.07;;;4.43;;
16352;SDS011;8286;51.274;9.542;2023-09-07T07:35:50;5.53;;;4.40;;
16352;SDS011;8286;51.274;9.542;2023-09-07T07:38:17;7.38;;;4.57;;
16352;SDS011;8286;51.274;9.542;2023-09-07T07:40:46;6.68;;;4.97;;
16352;SDS011;8286;51.274;9.542;2023-09-07T07:43:12;6.63;;;4.63;;
16352;SDS011;8286;51.274;9.542;2023-09-07T07:45:39;6.97;;;4.20;;
16352;SDS011;8286;51.274;9.542;2023-09-07T07:48:05;6.38;;;4.38;;
16352;SDS011;8286;51.274;9.542;2023-09-07T07:50:36;7.38;;;4.90;;
16352;SDS011;8286;51.274;9.542;2023-09-07T07:53:04;5.93;;;3.88;;
16352;SDS011;8286;51.274;9.542;2023-09-07T07:55:33;4.38;;;3.97;;
16352;SDS011;8286;51.274;9.542;2023-09-07T07:58:04;9.10;;;4.90;;
16352;SDS011;8286;51.274;9.542;2023-09-07T08:00:32;6.13;;;4.45;;
16352;SDS011;8286;51.274;9.542;2023-09-07T08:02:59;7.25;;;5.10;;
16352;SDS011;8286;51.274;9.542;2023-09-07T08:05:27;8.02;;;4.82;;
16352;SDS011;8286;51.274;9.542;2023-09-07T08:07:53;7.40;;;4.53;;
16352;SDS011;8286;51.274;9.542;2023-09-07T08:10:20;6.15;;;4.53;;
16352;SDS011;8286;51.274;9.542;2023-09-07T08:12:46;6.45;;;4.80;;
16352;SDS011;8286;51.274;9.542;2023-09-07T08:15:14;8.98;;;5.20;;
16352;SDS011;8286;51.274;9.542;2023-09-07T08:17:41;4.53;;;3.95;;
16352;SDS011;8286;51.274;9.542;2023-09-07T08:20:08;7.78;;;4.45;;
16352;SDS011;8286;51.274;9.542;2023-09-07T08:22:36;8.93;;;4.38;;
16352;SDS011;8286;51.274;9.542;2023-09-07T08:25:06;5.05;;;4.30;;
16352;SDS011;8286;51.274;9.542;2023-09-07T08:27:33;4.53;;;4.13;;
16352;SDS011;8286;51.274;9.542;2023-09-07T08:29:59;8.35;;;4.78;;
16352;SDS011;8286;51.274;9.542;2023-09-07T08:32:27;6.90;;;4.78;;
16352;SDS011;8286;51.274;9.542;2023-09-07T08:34:55;5.00;;;3.92;;
16352;SDS011;8286;51.274;9.542;2023-09-07T08:37:24;5.85;;;3.92;;
16352;SDS011;8286;51.274;9.542;2023-09-07T08:39:51;5.57;;;4.15;;
16352;SDS011;8286;51.274;9.542;2023-09-07T08:42:20;6.40;;;3.95;;
16352;SDS011;8286;51.274;9.542;2023-09-07T08:44:46;4.72;;;4.30;;
16352;SDS011;8286;51.274;9.542;2023-09-07T08:47:15;8.05;;;4.53;;
16352;SDS011;8286;51.274;9.542;2023-09-07T08:49:44;7.50;;;4.07;;
16352;SDS011;8286;51.274;9.542;2023-09-07T08:52:11;7.13;;;4.53;;
16352;SDS011;8286;51.274;9.542;2023-09-07T08:54:37;6.72;;;4.00;;
16352;SDS011;8286;51.274;9.542;2023-09-07T08:57:04;5.22;;;4.45;;
16352;SDS011;8286;51.274;9.542;2023-09-07T08:59:31;5.50;;;4.13;;
16352;SDS011;8286;51.274;9.542;2023-09-07T09:01:58;8.50;;;4.43;;
16352;SDS011;8286;51.274;9.542;2023-09-07T09:04:24;6.25;;;4.10;;
16352;SDS011;8286;51.274;9.542;2023-09-07T09:06:54;5.90;;;3.95;;
16352;SDS011;8286;51.274;9.542;2023-09-07T09:09:23;5.22;;;3.97;;
16352;SDS011;8286;51.274;9.542;2023-09-07T09:11:50;4.03;;;3.72;;
16352;SDS011;8286;51.274;9.542;2023-09-07T09:14:17;6.65;;;4.07;;
16352;SDS011;8286;51.274;9.542;2023-09-07T09:16:48;6.22;;;4.07;;
16352;SDS011;8286;51.274;9.542;2023-09-07T09:19:15;6.88;;;4.25;;
16352;SDS011;8286;51.274;9.542;2023-09-07T09:21:42;5.93;;;3.85;;
16352;SDS011;8286;51.274;9.542;2023-09-07T09:24:11;7.53;;;4.00;;
16352;SDS011;8286;51.274;9.542;2023-09-07T09:26:39;6.22;;;3.83;;
16352;SDS011;8286;51.274;9.542;2023-09-07T09:29:06;8.27;;;4.65;;
16352;SDS011;8286;51.274;9.542;2023-09-07T09:31:32;5.80;;;3.63;;
16352;SDS011;8286;51.274;9.542;2023-09-07T09:33:59;5.10;;;3.85;;
16352;SDS011;8286;51.274;9.542;2023-09-07T09:36:32;4.63;;;3.80;;
16352;SDS011;8286;51.274;9.542;2023-09-07T09:38:59;3.95;;;3.55;;
16352;SDS011;8286;51.274;9.542;2023-09-07T09:41:27;4.85;;;3.88;;
16352;SDS011;8286;51.274;9.542;2023-09-07T09:43:54;7.28;;;3.58;;
16352;SDS011;8286;51.274;9.542;2023-09-07T09:46:22;5.32;;;3.58;;
16352;SDS011;8286;51.274;9.542;2023-09-07T09:48:48;4.10;;;3.67;;
16352;SDS011;8286;51.274;9.542;2023-09-07T09:51:15;4.25;;;3.80;;
16352;SDS011;8286;51.274;9.542;2023-09-07T09:53:43;3.63;;;3.33;;
16352;SDS011;8286;51.274;9.542;2023-09-07T09:56:10;3.70;;;3.40;;
16352;SDS011;8286;51.274;9.542;2023-09-07T09:58:38;4.65;;;4.10;;
16352;SDS011;8286;51.274;9.542;2023-09-07T10:01:05;4.18;;;3.35;;
16352;SDS011;8286;51.274;9.542;2023-09-07T10:03:33;3.90;;;3.60;;
16352;SDS011;8286;51.274;9.542;2023-09-07T10:06:07;3.60;;;3.30;;
16352;SDS011;8286;51.274;9.542;2023-09-07T10:08:34;4.63;;;3.75;;
16352;SDS011;8286;51.274;9.542;2023-09-07T10:11:01;4.88;;;3.47;;
16352;SDS011;8286;51.274;9.542;2023-09-07T10:13:33;4.10;;;3.17;;
16352;SDS011;8286;51.274;9.542;2023-09-07T10:16:01;4.05;;;3.67;;
16352;SDS011;8286;51.274;9.542;2023-09-07T10:18:32;3.75;;;3.42;;
16352;SDS011;8286;51.274;9.542;2023-09-07T10:20:59;5.00;;;3.03;;
16352;SDS011;8286;51.274;9.542;2023-09-07T10:23:34;3.88;;;3.08;;
16352;SDS011;8286;51.274;9.542;2023-09-07T10:26:02;3.45;;;3.20;;
16352;SDS011;8286;51.274;9.542;2023-09-07T10:28:29;4.63;;;3.20;;
16352;SDS011;8286;51.274;9.542;2023-09-07T10:30:57;4.18;;;3.13;;
16352;SDS011;8286;51.274;9.542;2023-09-07T10:33:26;3.10;;;2.90;;
16352;SDS011;8286;51.274;9.542;2023-09-07T10:35:53;3.17;;;2.97;;
16352;SDS011;8286;51.274;9.542;2023-09-07T10:38:19;6.00;;;5.40;;
16352;SDS011;8286;51.274;9.542;2023-09-07T10:40:47;4.97;;;3.15;;
16352;SDS011;8286;51.274;9.542;2023-09-07T10:43:14;4.70;;;3.05;;
16352;SDS011;8286;51.274;9.542;2023-09-07T10:45:43;3.28;;;3.03;;
16352;SDS011;8286;51.274;9.542;2023-09-07T10:48:11;4.35;;;3.65;;
16352;SDS011;8286;51.274;9.542;2023-09-07T10:50:43;3.60;;;3.30;;
16352;SDS011;8286;51.274;9.542;2023-09-07T10:53:11;4.18;;;3.65;;
16352;SDS011;8286;51.274;9.542;2023-09-07T10:55:39;3.80;;;3.50;;
16352;SDS011;8286;51.274;9.542;2023-09-07T10:58:06;8.98;;;8.07;;
16352;SDS011;8286;51.274;9.542;2023-09-07T11:00:33;3.40;;;3.20;;
16352;SDS011;8286;51.274;9.542;2023-09-07T11:03:06;5.60;;;3.10;;
16352;SDS011;8286;51.274;9.542;2023-09-07T11:05:33;3.53;;;3.33;;
16352;SDS011;8286;51.274;9.542;2023-09-07T11:08:03;5.18;;;4.68;;
16352;SDS011;8286;51.274;9.542;2023-09-07T11:10:32;3.33;;;3.03;;
16352;SDS011;8286;51.274;9.542;2023-09-07T11:13:01;3.03;;;2.80;;
16352;SDS011;8286;51.274;9.542;2023-09-07T11:15:29;3.17;;;2.88;;
16352;SDS011;8286;51.274;9.542;2023-09-07T11:17:55;4.13;;;2.92;;
16352;SDS011;8286;51.274;9.542;2023-09-07T11:20:22;3.33;;;3.08;;
16352;SDS011;8286;51.274;9.542;2023-09-07T11:22:49;3.00;;;2.70;;
16352;SDS011;8286;51.274;9.542;2023-09-07T11:25:17;3.10;;;2.78;;
16352;SDS011;8286;51.274;9.542;2023-09-07T11:27:44;3.65;;;3.10;;
16352;SDS011;8286;51.274;9.542;2023-09-07T11:30:10;3.08;;;2.80;;
16352;SDS011;8286;51.274;9.542;2023-09-07T11:32:37;3.08;;;2.88;;
16352;SDS011;8286;51.274;9.542;2023-09-07T11:35:05;3.88;;;3.58;;
16352;SDS011;8286;51.274;9.542;2023-09-07T11:37:32;2.92;;;2.72;;
16352;SDS011;8286;51.274;9.542;2023-09-07T11:39:59;3.60;;;2.80;;
16352;SDS011;8286;51.274;9.542;2023-09-07T11:42:27;3.13;;;2.90;;
16352;SDS011;8286;51.274;9.542;2023-09-07T11:44:54;3.45;;;2.58;;
16352;SDS011;8286;51.274;9.542;2023-09-07T11:47:20;3.75;;;2.85;;
16352;SDS011;8286;51.274;9.542;2023-09-07T11:49:47;3.17;;;2.90;;
16352;SDS011;8286;51.274;9.542;2023-09-07T11:52:15;2.72;;;2.53;;
16352;SDS011;8286;51.274;9.542;2023-09-07T11:54:42;2.58;;;2.38;;
16352;SDS011;8286;51.274;9.542;2023-09-07T11:57:08;2.88;;;2.67;;
16352;SDS011;8286;51.274;9.542;2023-09-07T11:59:36;2.65;;;2.55;;
16352;SDS011;8286;51.274;9.542;2023-09-07T12:02:03;3.10;;;2.70;;
16352;SDS011;8286;51.274;9.542;2023-09-07T12:04:30;3.00;;;2.80;;
16352;SDS011;8286;51.274;9.542;2023-09-07T12:06:57;3.30;;;3.08;;
16352;SDS011;8286;51.274;9.542;2023-09-07T12:09:23;2.58;;;2.47;;
16352;SDS011;8286;51.274;9.542;2023-09-07T12:11:50;3.03;;;2.70;;
16352;SDS011;8286;51.274;9.542;2023-09-07T12:14:17;3.08;;;2.85;;
16352;SDS011;8286;51.274;9.542;2023-09-07T12:16:45;3.90;;;2.88;;
16352;SDS011;8286;51.274;9.542;2023-09-07T12:19:11;5.60;;;2.65;;
16352;SDS011;8286;51.274;9.542;2023-09-07T12:21:38;2.67;;;2.47;;
16352;SDS011;8286;51.274;9.542;2023-09-07T12:24:05;3.72;;;3.03;;
16352;SDS011;8286;51.274;9.542;2023-09-07T12:26:31;3.45;;;2.67;;
16352;SDS011;8286;51.274;9.542;2023-09-07T12:28:58;2.75;;;2.55;;
16352;SDS011;8286;51.274;9.542;2023-09-07T12:31:25;4.45;;;2.75;;
16352;SDS011;8286;51.274;9.542;2023-09-07T12:33:53;3.47;;;3.17;;
16352;SDS011;8286;51.274;9.542;2023-09-07T12:36:19;5.45;;;2.70;;
16352;SDS011;8286;51.274;9.542;2023-09-07T12:38:46;5.55;;;3.30;;
16352;SDS011;8286;51.274;9.542;2023-09-07T12:41:13;3.60;;;2.67;;
16352;SDS011;8286;51.274;9.542;2023-09-07T12:43:40;6.00;;;3.40;;
16352;SDS011;8286;51.274;9.542;2023-09-07T12:46:07;4.18;;;2.92;;
16352;SDS011;8286;51.274;9.542;2023-09-07T12:48:34;4.95;;;2.75;;
16352;SDS011;8286;51.274;9.542;2023-09-07T12:51:02;4.03;;;3.28;;
16352;SDS011;8286;51.274;9.542;2023-09-07T12:53:29;3.00;;;2.72;;
16352;SDS011;8286;51.274;9.542;2023-09-07T12:55:55;3.10;;;2.80;;
16352;SDS011;8286;51.274;9.542;2023-09-07T12:58:22;4.03;;;3.10;;
16352;SDS011;8286;51.274;9.542;2023-09-07T13:00:49;3.67;;;2.90;;
16352;SDS011;8286;51.274;9.542;2023-09-07T13:03:16;2.80;;;2.60;;
16352;SDS011;8286;51.274;9.542;2023-09-07T13:05:43;3.90;;;3.00;;
16352;SDS011;8286;51.274;9.542;2023-09-07T13:08:11;3.50;;;2.83;;
16352;SDS011;8286;51.274;9.542;2023-09-07T13:10:38;9.38;;;3.40;;
16352;SDS011;8286;51.274;9.542;2023-09-07T13:13:04;6.28;;;3.38;;
16352;SDS011;8286;51.274;9.542;2023-09-07T13:15:31;3.13;;;2.92;;
16352;SDS011;8286;51.274;9.542;2023-09-07T13:17:58;3.78;;;2.83;;
16352;SDS011;8286;51.274;9.542;2023-09-07T13:20:24;3.95;;;3.05;;
16352;SDS011;8286;51.274;9.542;2023-09-07T13:22:51;3.15;;;2.80;;
16352;SDS011;8286;51.274;9.542;2023-09-07T13:25:19;2.90;;;2.70;;
16352;SDS011;8286;51.274;9.542;2023-09-07T13:27:46;3.83;;;2.60;;
16352;SDS011;8286;51.274;9.542;2023-09-07T13:30:12;3.13;;;2.90;;
16352;SDS011;8286;51.274;9.542;2023-09-07T13:32:39;4.30;;;2.95;;
16352;SDS011;8286;51.274;9.542;2023-09-07T13:35:06;2.75;;;2.55;;
16352;SDS011;8286;51.274;9.542;2023-09-07T13:37:33;6.85;;;2.58;;
16352;SDS011;8286;51.274;9.542;2023-09-07T13:40:00;2.88;;;2.70;;
16352;SDS011;8286;51.274;9.542;2023-09-07T13:42:29;3.25;;;2.97;;
16352;SDS011;8286;51.274;9.542;2023-09-07T13:44:56;3.20;;;2.90;;
16352;SDS011;8286;51.274;9.542;2023-09-07T13:47:22;4.22;;;2.80;;
16352;SDS011;8286;51.274;9.542;2023-09-07T13:49:49;4.20;;;2.80;;
16352;SDS011;8286;51.274;9.542;2023-09-07T13:52:15;3.08;;;2.88;;
16352;SDS011;8286;51.274;9.542;2023-09-07T13:54:42;2.67;;;2.47;;
16352;SDS011;8286;51.274;9.542;2023-09-07T13:57:09;2.60;;;2.40;;
16352;SDS011;8286;51.274;9.542;2023-09-07T13:59:37;3.25;;;2.92;;
16352;SDS011;8286;51.274;9.542;2023-09-07T14:02:03;2.90;;;2.70;;
16352;SDS011;8286;51.274;9.542;2023-09-07T14:04:30;3.22;;;2.70;;
16352;SDS011;8286;51.274;9.542;2023-09-07T14:06:56;3.42;;;2.78;;
16352;SDS011;8286;51.274;9.542;2023-09-07T14:09:23;4.15;;;2.83;;
16352;SDS011;8286;51.274;9.542;2023-09-07T14:11:49;2.65;;;2.45;;
16352;SDS011;8286;51.274;9.542;2023-09-07T14:14:16;3.10;;;2.80;;
16352;SDS011;8286;51.274;9.542;2023-09-07T14:16:44;3.00;;;2.58;;
16352;SDS011;8286;51.274;9.542;2023-09-07T14:19:10;2.95;;;2.70;;
16352;SDS011;8286;51.274;9.542;2023-09-07T14:21:37;5.60;;;2.47;;
16352;SDS011;8286;51.274;9.542;2023-09-07T14:24:04;2.72;;;2.53;;
16352;SDS011;8286;51.274;9.542;2023-09-07T14:26:30;2.70;;;2.50;;
16352;SDS011;8286;51.274;9.542;2023-09-07T14:28:57;6.38;;;2.50;;
16352;SDS011;8286;51.274;9.542;2023-09-07T14:31:23;3.97;;;2.65;;
16352;SDS011;8286;51.274;9.542;2023-09-07T14:33:51;6.15;;;2.75;;
16352;SDS011;8286;51.274;9.542;2023-09-07T14:36:18;2.88;;;2.67;;
16352;SDS011;8286;51.274;9.542;2023-09-07T14:38:44;2.80;;;2.60;;
16352;SDS011;8286;51.274;9.542;2023-09-07T14:41:11;3.15;;;2.90;;
16352;SDS011;8286;51.274;9.542;2023-09-07T14:43:43;3.33;;;3.03;;
16352;SDS011;8286;51.274;9.542;2023-09-07T14:46:10;8.13;;;3.00;;
16352;SDS011;8286;51.274;9.542;2023-09-07T14:48:36;5.25;;;3.08;;
16352;SDS011;8286;51.274;9.542;2023-09-07T14:51:04;3.67;;;3.13;;
16352;SDS011;8286;51.274;9.542;2023-09-07T14:53:31;3.30;;;3.00;;
16352;SDS011;8286;51.274;9.542;2023-09-07T14:55:57;3.20;;;3.00;;
16352;SDS011;8286;51.274;9.542;2023-09-07T14:58:24;3.10;;;2.90;;
16352;SDS011;8286;51.274;9.542;2023-09-07T15:00:50;5.75;;;2.83;;